createdAt,value
2017-10-28T00:00:26.206Z,1012.3
2017-10-28T00:01:28.926Z,1012.4
2017-10-28T00:02:31.305Z,1012.3
2017-10-28T00:03:33.682Z,1012.4
2017-10-28T00:04:36.059Z,1012.4
2017-10-28T00:05:38.774Z,1012.3
2017-10-28T00:06:41.141Z,1012.3
2017-10-28T00:07:43.514Z,1012.3
2017-10-28T00:08:45.881Z,1012.3
2017-10-28T00:09:48.251Z,1012.2
2017-10-28T00:10:50.633Z,1012.2
2017-10-28T00:11:53.001Z,1012.2
2017-10-28T00:12:55.377Z,1012.2
2017-10-28T00:13:57.751Z,1012.2
2017-10-28T00:15:00.128Z,1012.2
2017-10-28T00:16:02.504Z,1012.1
2017-10-28T00:17:04.873Z,1012.2
2017-10-28T00:18:07.240Z,1012.2
2017-10-28T00:19:09.608Z,1012.2
2017-10-28T00:20:12.333Z,1012.1
2017-10-28T00:21:14.708Z,1012.1
2017-10-28T00:22:17.073Z,1012.1
2017-10-28T00:23:19.455Z,1012.1
2017-10-28T00:24:21.816Z,1012.1
2017-10-28T00:25:24.197Z,1012.1
2017-10-28T00:26:26.916Z,1012.1
2017-10-28T00:27:29.293Z,1012.1
2017-10-28T00:28:31.668Z,1012.1
2017-10-28T00:29:34.043Z,1012.1
2017-10-28T00:30:36.405Z,1012
2017-10-28T00:31:38.787Z,1012.1
2017-10-28T00:32:41.154Z,1012
2017-10-28T00:33:43.518Z,1012.1
2017-10-28T00:34:45.895Z,1012
2017-10-28T00:35:48.259Z,1012
2017-10-28T00:36:51.011Z,1012
2017-10-28T00:37:53.388Z,1012
2017-10-28T00:38:55.766Z,1011.9
2017-10-28T00:39:58.137Z,1012
2017-10-28T00:41:00.512Z,1011.9
2017-10-28T00:42:02.888Z,1011.8
2017-10-28T00:43:05.267Z,1011.8
2017-10-28T00:44:07.630Z,1011.8
2017-10-28T00:45:10.011Z,1011.8
2017-10-28T00:46:12.732Z,1011.8
2017-10-28T00:47:15.103Z,1011.8
2017-10-28T00:48:17.828Z,1011.7
2017-10-28T00:49:20.198Z,1011.7
2017-10-28T00:50:22.574Z,1011.7
2017-10-28T00:51:24.953Z,1011.6
2017-10-28T00:52:27.329Z,1011.5
2017-10-28T00:53:29.702Z,1011.6
2017-10-28T00:54:32.075Z,1011.5
2017-10-28T00:55:34.793Z,1011.6
2017-10-28T00:56:37.161Z,1011.5
2017-10-28T00:57:39.543Z,1011.5
2017-10-28T00:58:42.261Z,1011.6
2017-10-28T00:59:44.634Z,1011.5
2017-10-28T01:00:46.999Z,1011.4
2017-10-28T01:01:49.372Z,1011.5
2017-10-28T01:02:51.740Z,1011.4
2017-10-28T01:03:54.117Z,1011.5
2017-10-28T01:04:56.483Z,1011.5
2017-10-28T01:05:58.860Z,1011.5
2017-10-28T01:07:01.247Z,1011.5
2017-10-28T01:08:03.614Z,1011.4
2017-10-28T01:09:05.985Z,1011.4
2017-10-28T01:10:08.372Z,1011.4
2017-10-28T01:11:10.753Z,1011.3
2017-10-28T01:12:13.118Z,1011.4
2017-10-28T01:13:15.489Z,1011.3
2017-10-28T01:14:17.862Z,1011.3
2017-10-28T01:15:20.234Z,1011.2
2017-10-28T01:16:22.604Z,1011.3
2017-10-28T01:17:24.973Z,1011.3
2017-10-28T01:18:27.340Z,1011.2
2017-10-28T01:19:29.733Z,1011.1
2017-10-28T01:20:32.795Z,1011.2
2017-10-28T01:21:35.168Z,1011.1
2017-10-28T01:22:37.537Z,1011.1
2017-10-28T01:23:39.914Z,1011.1
2017-10-28T01:24:42.629Z,1011.1
2017-10-28T01:25:45.004Z,1011
2017-10-28T01:26:47.376Z,1011
2017-10-28T01:27:49.742Z,1011
2017-10-28T01:28:52.128Z,1010.9
2017-10-28T01:29:54.517Z,1010.9
2017-10-28T01:30:56.864Z,1010.9
2017-10-28T01:31:59.244Z,1010.8
2017-10-28T01:33:01.962Z,1010.8
2017-10-28T01:34:04.342Z,1010.7
2017-10-28T01:35:07.426Z,1010.7
2017-10-28T01:36:10.150Z,1010.7
2017-10-28T01:37:12.540Z,1010.6
2017-10-28T01:38:15.248Z,1010.7
2017-10-28T01:39:17.617Z,1010.6
2017-10-28T01:40:19.990Z,1010.6
2017-10-28T01:41:22.357Z,1010.6
2017-10-28T01:42:24.736Z,1010.6
2017-10-28T01:43:27.101Z,1010.6
2017-10-28T01:44:29.469Z,1010.6
2017-10-28T01:45:31.851Z,1010.6
2017-10-28T01:46:34.229Z,1010.5
2017-10-28T01:47:36.599Z,1010.5
2017-10-28T01:48:38.983Z,1010.5
2017-10-28T01:49:41.365Z,1010.5
2017-10-28T01:50:43.721Z,1010.3
2017-10-28T01:51:46.446Z,1010.3
2017-10-28T01:52:48.808Z,1010.3
2017-10-28T01:53:51.186Z,1010.2
2017-10-28T01:54:53.566Z,1010.2
2017-10-28T01:55:56.652Z,1010.2
2017-10-28T01:56:59.029Z,1010.2
2017-10-28T01:58:01.402Z,1010.2
2017-10-28T01:59:03.763Z,1010.2
2017-10-28T02:00:06.152Z,1010.2
2017-10-28T02:01:08.526Z,1010.1
2017-10-28T02:02:11.235Z,1010.2
2017-10-28T02:03:13.614Z,1010.1
2017-10-28T02:04:15.979Z,1010.1
2017-10-28T02:05:18.353Z,1010
2017-10-28T02:06:20.730Z,1010.1
2017-10-28T02:07:23.112Z,1010
2017-10-28T02:08:25.487Z,1009.9
2017-10-28T02:09:27.847Z,1009.9
2017-10-28T02:10:30.221Z,1009.9
2017-10-28T02:11:32.595Z,1009.8
2017-10-28T02:12:34.975Z,1009.9
2017-10-28T02:13:37.694Z,1009.8
2017-10-28T02:14:40.060Z,1009.8
2017-10-28T02:15:42.440Z,1009.7
2017-10-28T02:16:44.830Z,1009.8
2017-10-28T02:17:47.184Z,1009.8
2017-10-28T02:18:49.568Z,1009.8
2017-10-28T02:19:51.926Z,1009.8
2017-10-28T02:20:54.305Z,1009.7
2017-10-28T02:21:56.683Z,1009.7
2017-10-28T02:22:59.054Z,1009.7
2017-10-28T02:24:01.417Z,1009.8
2017-10-28T02:25:03.793Z,1009.8
2017-10-28T02:26:06.162Z,1009.7
2017-10-28T02:27:08.886Z,1009.7
2017-10-28T02:28:11.257Z,1009.7
2017-10-28T02:29:13.629Z,1009.8
2017-10-28T02:30:16.006Z,1009.7
2017-10-28T02:31:18.385Z,1009.7
2017-10-28T02:32:20.757Z,1009.6
2017-10-28T02:33:23.129Z,1009.6
2017-10-28T02:34:25.498Z,1009.5
2017-10-28T02:35:27.876Z,1009.5
2017-10-28T02:36:30.253Z,1009.5
2017-10-28T02:37:32.970Z,1009.5
2017-10-28T02:38:35.692Z,1009.4
2017-10-28T02:39:38.059Z,1009.4
2017-10-28T02:40:40.435Z,1009.4
2017-10-28T02:41:42.807Z,1009.3
2017-10-28T02:42:45.194Z,1009.3
2017-10-28T02:43:47.555Z,1009.3
2017-10-28T02:44:49.939Z,1009.3
2017-10-28T02:45:52.311Z,1009.3
2017-10-28T02:46:54.678Z,1009.3
2017-10-28T02:47:57.052Z,1009.3
2017-10-28T02:48:59.419Z,1009.3
2017-10-28T02:50:01.785Z,1009.3
2017-10-28T02:51:04.169Z,1009.2
2017-10-28T02:52:06.888Z,1009.3
2017-10-28T02:53:09.263Z,1009.2
2017-10-28T02:54:11.993Z,1009.2
2017-10-28T02:55:14.360Z,1009.1
2017-10-28T02:56:16.727Z,1009.2
2017-10-28T02:57:19.110Z,1009.2
2017-10-28T02:58:21.837Z,1009.1
2017-10-28T02:59:24.584Z,1009.1
2017-10-28T03:00:26.956Z,1009.2
2017-10-28T03:01:29.328Z,1009.1
2017-10-28T03:02:31.706Z,1009.1
2017-10-28T03:03:34.077Z,1009.1
2017-10-28T03:04:36.443Z,1009.1
2017-10-28T03:05:39.171Z,1009.1
2017-10-28T03:06:41.895Z,1009.1
2017-10-28T03:07:44.273Z,1009.1
2017-10-28T03:08:46.633Z,1009.1
2017-10-28T03:09:49.012Z,1009
2017-10-28T03:10:51.394Z,1008.9
2017-10-28T03:11:53.758Z,1008.9
2017-10-28T03:12:56.132Z,1008.9
2017-10-28T03:13:58.499Z,1008.8
2017-10-28T03:15:00.867Z,1008.8
2017-10-28T03:16:03.247Z,1008.8
2017-10-28T03:17:05.967Z,1008.7
2017-10-28T03:18:08.327Z,1008.8
2017-10-28T03:19:10.705Z,1008.8
2017-10-28T03:20:13.081Z,1008.8
2017-10-28T03:21:15.455Z,1008.8
2017-10-28T03:22:17.827Z,1008.8
2017-10-28T03:23:20.541Z,1008.9
2017-10-28T03:24:22.906Z,1008.8
2017-10-28T03:25:25.286Z,1008.8
2017-10-28T03:26:27.658Z,1008.8
2017-10-28T03:27:30.064Z,1008.8
2017-10-28T03:28:32.405Z,1008.8
2017-10-28T03:29:34.775Z,1008.7
2017-10-28T03:30:37.146Z,1008.7
2017-10-28T03:31:39.524Z,1008.7
2017-10-28T03:32:41.878Z,1008.7
2017-10-28T03:33:44.247Z,1008.7
2017-10-28T03:34:46.977Z,1008.5
2017-10-28T03:35:49.341Z,1008.5
2017-10-28T03:36:51.717Z,1008.5
2017-10-28T03:37:54.086Z,1008.5
2017-10-28T03:38:56.460Z,1008.4
2017-10-28T03:39:58.831Z,1008.5
2017-10-28T03:41:01.562Z,1008.5
2017-10-28T03:42:03.934Z,1008.4
2017-10-28T03:43:06.319Z,1008.4
2017-10-28T03:44:08.677Z,1008.4
2017-10-28T03:45:11.053Z,1008.4
2017-10-28T03:46:13.421Z,1008.4
2017-10-28T03:47:15.796Z,1008.3
2017-10-28T03:48:18.173Z,1008.2
2017-10-28T03:49:20.547Z,1008.2
2017-10-28T03:50:22.912Z,1008.2
2017-10-28T03:51:25.632Z,1008.3
2017-10-28T03:52:28.001Z,1008.2
2017-10-28T03:53:30.377Z,1008.2
2017-10-28T03:54:32.749Z,1008.1
2017-10-28T03:55:35.131Z,1008
2017-10-28T03:56:37.486Z,1008.1
2017-10-28T03:57:40.225Z,1008.1
2017-10-28T03:58:42.592Z,1008.1
2017-10-28T03:59:44.962Z,1008
2017-10-28T04:00:47.334Z,1008
2017-10-28T04:01:49.714Z,1008
2017-10-28T04:02:52.423Z,1008
2017-10-28T04:03:54.808Z,1008
2017-10-28T04:04:57.174Z,1007.9
2017-10-28T04:05:59.539Z,1007.9
2017-10-28T04:07:01.912Z,1007.9
2017-10-28T04:08:04.292Z,1007.9
2017-10-28T04:09:06.659Z,1007.8
2017-10-28T04:10:09.026Z,1007.8
2017-10-28T04:11:11.400Z,1007.7
2017-10-28T04:12:14.844Z,1007.8
2017-10-28T04:13:17.218Z,1007.7
2017-10-28T04:14:19.955Z,1007.7
2017-10-28T04:15:22.303Z,1007.7
2017-10-28T04:16:24.675Z,1007.7
2017-10-28T04:17:27.061Z,1007.7
2017-10-28T04:18:29.423Z,1007.6
2017-10-28T04:19:32.153Z,1007.6
2017-10-28T04:20:34.521Z,1007.5
2017-10-28T04:21:36.886Z,1007.5
2017-10-28T04:22:39.630Z,1007.6
2017-10-28T04:23:42.002Z,1007.6
2017-10-28T04:24:44.367Z,1007.5
2017-10-28T04:25:46.738Z,1007.5
2017-10-28T04:26:49.103Z,1007.5
2017-10-28T04:27:51.478Z,1007.6
2017-10-28T04:28:53.853Z,1007.5
2017-10-28T04:29:56.214Z,1007.5
2017-10-28T04:30:58.583Z,1007.4
2017-10-28T04:32:00.962Z,1007.3
2017-10-28T04:33:03.683Z,1007.2
2017-10-28T04:34:06.056Z,1007.3
2017-10-28T04:35:08.778Z,1007.3
2017-10-28T04:36:11.512Z,1007.3
2017-10-28T04:37:13.887Z,1007.3
2017-10-28T04:38:16.603Z,1007.3
2017-10-28T04:39:18.982Z,1007.3
2017-10-28T04:40:21.357Z,1007.3
2017-10-28T04:41:24.070Z,1007.2
2017-10-28T04:42:26.447Z,1007.2
2017-10-28T04:43:28.829Z,1007.1
2017-10-28T04:44:31.198Z,1007.1
2017-10-28T04:45:33.568Z,1007
2017-10-28T04:46:35.942Z,1007
2017-10-28T04:47:38.662Z,1007
2017-10-28T04:48:41.402Z,1006.9
2017-10-28T04:49:43.771Z,1006.9
2017-10-28T04:50:46.142Z,1006.8
2017-10-28T04:51:48.517Z,1006.8
2017-10-28T04:52:50.887Z,1006.7
2017-10-28T04:53:53.270Z,1006.7
2017-10-28T04:54:55.648Z,1006.8
2017-10-28T04:55:58.009Z,1006.8
2017-10-28T04:57:00.803Z,1006.8
2017-10-28T04:58:03.178Z,1006.7
2017-10-28T04:59:05.553Z,1006.6
2017-10-28T05:00:07.927Z,1006.7
2017-10-28T05:01:10.299Z,1006.6
2017-10-28T05:02:12.670Z,1006.6
2017-10-28T05:03:15.057Z,1006.6
2017-10-28T05:04:17.432Z,1006.7
2017-10-28T05:05:20.150Z,1006.7
2017-10-28T05:06:22.871Z,1006.6
2017-10-28T05:07:25.256Z,1006.6
2017-10-28T05:08:27.631Z,1006.6
2017-10-28T05:09:30.007Z,1006.5
2017-10-28T05:10:32.384Z,1006.5
2017-10-28T05:11:34.759Z,1006.4
2017-10-28T05:12:37.143Z,1006.4
2017-10-28T05:13:39.515Z,1006.3
2017-10-28T05:14:41.891Z,1006.3
2017-10-28T05:15:44.256Z,1006.3
2017-10-28T05:16:46.627Z,1006.4
2017-10-28T05:17:48.999Z,1006.2
2017-10-28T05:18:51.371Z,1006.2
2017-10-28T05:19:54.084Z,1006.2
2017-10-28T05:20:56.465Z,1006.3
2017-10-28T05:21:58.844Z,1006.1
2017-10-28T05:23:01.560Z,1006.2
2017-10-28T05:24:03.940Z,1006.2
2017-10-28T05:25:06.664Z,1006.2
2017-10-28T05:26:09.033Z,1006.1
2017-10-28T05:27:11.422Z,1006.1
2017-10-28T05:28:13.792Z,1006
2017-10-28T05:29:16.173Z,1006.2
2017-10-28T05:30:18.549Z,1006.2
2017-10-28T05:31:20.927Z,1006.2
2017-10-28T05:32:23.301Z,1006.2
2017-10-28T05:33:26.018Z,1006.2
2017-10-28T05:34:28.389Z,1006.2
2017-10-28T05:35:30.758Z,1006.1
2017-10-28T05:36:33.123Z,1006.2
2017-10-28T05:37:35.485Z,1006.2
2017-10-28T05:38:37.862Z,1006.1
2017-10-28T05:39:40.232Z,1006.1
2017-10-28T05:40:42.604Z,1006.1
2017-10-28T05:41:44.975Z,1006
2017-10-28T05:42:48.304Z,1005.9
2017-10-28T05:43:50.927Z,1005.9
2017-10-28T05:44:53.304Z,1005.9
2017-10-28T05:45:55.674Z,1005.9
2017-10-28T05:46:58.053Z,1005.9
2017-10-28T05:48:00.421Z,1005.8
2017-10-28T05:49:03.146Z,1005.8
2017-10-28T05:50:05.547Z,1005.9
2017-10-28T05:51:07.938Z,1005.8
2017-10-28T05:52:10.311Z,1005.8
2017-10-28T05:53:12.686Z,1005.8
2017-10-28T05:54:15.064Z,1005.8
2017-10-28T05:55:17.423Z,1005.8
2017-10-28T05:56:19.809Z,1005.9
2017-10-28T05:57:22.530Z,1005.8
2017-10-28T05:58:24.905Z,1005.7
2017-10-28T05:59:27.286Z,1005.7
2017-10-28T06:00:29.674Z,1005.7
2017-10-28T06:01:32.324Z,1005.7
2017-10-28T06:02:35.047Z,1005.6
2017-10-28T06:03:37.410Z,1005.6
2017-10-28T06:04:39.781Z,1005.6
2017-10-28T06:05:42.156Z,1005.5
2017-10-28T06:06:44.536Z,1005.5
2017-10-28T06:07:47.257Z,1005.6
2017-10-28T06:08:49.629Z,1005.6
2017-10-28T06:09:52.361Z,1005.5
2017-10-28T06:10:54.733Z,1005.5
2017-10-28T06:11:57.465Z,1005.5
2017-10-28T06:12:59.838Z,1005.5
2017-10-28T06:14:04.620Z,1005.5
2017-10-28T06:15:06.992Z,1005.5
2017-10-28T06:16:09.369Z,1005.6
2017-10-28T06:17:11.734Z,1005.5
2017-10-28T06:18:14.114Z,1005.5
2017-10-28T06:19:16.480Z,1005.5
2017-10-28T06:20:18.852Z,1005.4
2017-10-28T06:21:21.223Z,1005.4
2017-10-28T06:22:23.825Z,1005.4
2017-10-28T06:23:26.197Z,1005.3
2017-10-28T06:24:28.594Z,1005.1
2017-10-28T06:25:30.971Z,1005
2017-10-28T06:26:33.340Z,1005.2
2017-10-28T06:27:35.715Z,1005.2
2017-10-28T06:28:38.447Z,1005.1
2017-10-28T06:29:40.850Z,1005.2
2017-10-28T06:30:43.227Z,1005.1
2017-10-28T06:31:45.607Z,1005.2
2017-10-28T06:32:47.973Z,1005.1
2017-10-28T06:33:50.365Z,1005.2
2017-10-28T06:34:52.786Z,1005.3
2017-10-28T06:35:55.145Z,1005.2
2017-10-28T06:36:57.694Z,1005.1
2017-10-28T06:38:00.070Z,1005.1
2017-10-28T06:39:02.583Z,1005.2
2017-10-28T06:40:05.305Z,1005.2
2017-10-28T06:41:07.811Z,1005.3
2017-10-28T06:42:10.180Z,1005.3
2017-10-28T06:43:12.567Z,1005.2
2017-10-28T06:44:14.974Z,1005.3
2017-10-28T06:45:17.582Z,1005.3
2017-10-28T06:46:19.961Z,1005.3
2017-10-28T06:47:22.343Z,1005.3
2017-10-28T06:48:24.814Z,1005.3
2017-10-28T06:49:27.191Z,1005.2
2017-10-28T06:50:29.554Z,1005.1
2017-10-28T06:51:32.983Z,1005.1
2017-10-28T06:52:35.363Z,1005
2017-10-28T06:53:37.759Z,1005
2017-10-28T06:54:40.118Z,1005.1
2017-10-28T06:55:42.512Z,1005.1
2017-10-28T06:56:44.872Z,1005.3
2017-10-28T06:57:47.252Z,1005.2
2017-10-28T06:58:49.630Z,1005.2
2017-10-28T06:59:52.008Z,1005.3
2017-10-28T07:00:54.379Z,1005.2
2017-10-28T07:01:56.767Z,1005.3
2017-10-28T07:02:59.140Z,1005
2017-10-28T07:04:01.530Z,1005.2
2017-10-28T07:05:03.914Z,1005.2
2017-10-28T07:06:06.292Z,1005.2
2017-10-28T07:07:08.656Z,1005.1
2017-10-28T07:08:11.038Z,1005
2017-10-28T07:09:13.416Z,1005
2017-10-28T07:10:15.792Z,1005.1
2017-10-28T07:11:18.169Z,1005
2017-10-28T07:12:20.538Z,1005
2017-10-28T07:13:22.928Z,1004.9
2017-10-28T07:14:25.664Z,1005
2017-10-28T07:15:28.034Z,1004.8
2017-10-28T07:16:30.409Z,1004.8
2017-10-28T07:17:32.807Z,1004.8
2017-10-28T07:18:35.165Z,1004.8
2017-10-28T07:19:37.545Z,1004.8
2017-10-28T07:20:39.927Z,1004.8
2017-10-28T07:21:42.651Z,1004.8
2017-10-28T07:22:45.034Z,1004.8
2017-10-28T07:23:47.402Z,1004.8
2017-10-28T07:24:49.774Z,1004.9
2017-10-28T07:25:52.158Z,1004.8
2017-10-28T07:26:54.915Z,1004.7
2017-10-28T07:27:57.286Z,1004.7
2017-10-28T07:28:59.664Z,1004.8
2017-10-28T07:30:02.040Z,1004.6
2017-10-28T07:31:04.759Z,1004.6
2017-10-28T07:32:07.500Z,1004.6
2017-10-28T07:33:09.868Z,1004.6
2017-10-28T07:34:12.253Z,1004.5
2017-10-28T07:35:14.631Z,1004.5
2017-10-28T07:36:16.997Z,1004.5
2017-10-28T07:37:19.769Z,1004.4
2017-10-28T07:38:22.148Z,1004.4
2017-10-28T07:39:24.524Z,1004.5
2017-10-28T07:40:27.266Z,1004.4
2017-10-28T07:41:29.639Z,1004.4
2017-10-28T07:42:32.018Z,1004.4
2017-10-28T07:43:34.403Z,1004.3
2017-10-28T07:44:36.785Z,1004.3
2017-10-28T07:45:39.163Z,1004.3
2017-10-28T07:46:41.534Z,1004.3
2017-10-28T07:47:43.908Z,1004.3
2017-10-28T07:48:46.305Z,1004.3
2017-10-28T07:50:40.023Z,1004.2
2017-10-28T07:51:42.482Z,1004.3
2017-10-28T07:52:44.917Z,1004.3
2017-10-28T07:53:47.359Z,1004.2
2017-10-28T07:54:49.784Z,1004.2
2017-10-28T07:55:52.213Z,1004.2
2017-10-28T07:56:54.647Z,1004.1
2017-10-28T07:57:57.072Z,1004.2
2017-10-28T07:58:59.859Z,1004.2
2017-10-28T08:00:02.645Z,1004.1
2017-10-28T08:01:05.066Z,1004.1
2017-10-28T08:02:07.513Z,1004.1
2017-10-28T08:03:09.931Z,1004.2
2017-10-28T08:04:12.372Z,1004.2
2017-10-28T08:05:14.799Z,1004.1
2017-10-28T08:06:17.238Z,1004.1
2017-10-28T08:07:19.652Z,1004.1
2017-10-28T08:08:22.080Z,1004.2
2017-10-28T08:09:24.515Z,1004.3
2017-10-28T08:10:26.936Z,1004.3
2017-10-28T08:11:29.360Z,1004.2
2017-10-28T08:12:31.790Z,1004.1
2017-10-28T08:13:34.210Z,1004.2
2017-10-28T08:14:36.653Z,1004.1
2017-10-28T08:15:39.079Z,1004.1
2017-10-28T08:16:41.501Z,1003.9
2017-10-28T08:17:43.937Z,1003.9
2017-10-28T08:18:46.354Z,1004
2017-10-28T08:19:48.788Z,1003.8
2017-10-28T08:20:51.226Z,1003.8
2017-10-28T08:21:53.648Z,1003.8
2017-10-28T08:22:56.084Z,1003.7
2017-10-28T08:23:58.522Z,1003.8
2017-10-28T08:25:01.295Z,1003.7
2017-10-28T08:26:03.739Z,1003.5
2017-10-28T08:27:06.156Z,1003.6
2017-10-28T08:28:08.583Z,1003.5
2017-10-28T08:29:11.371Z,1003.6
2017-10-28T08:30:13.797Z,1003.6
2017-10-28T08:31:16.577Z,1003.7
2017-10-28T08:32:19.341Z,1003.6
2017-10-28T08:33:21.791Z,1003.6
2017-10-28T08:34:24.212Z,1003.6
2017-10-28T08:35:26.639Z,1003.6
2017-10-28T08:36:29.070Z,1003.6
2017-10-28T08:37:31.493Z,1003.5
2017-10-28T08:38:33.927Z,1003.6
2017-10-28T08:39:36.719Z,1003.6
2017-10-28T08:40:39.146Z,1003.6
2017-10-28T08:41:41.559Z,1003.5
2017-10-28T08:42:44.716Z,1003.5
2017-10-28T08:43:47.145Z,1003.4
2017-10-28T08:44:49.578Z,1003.4
2017-10-28T08:45:52.012Z,1003.4
2017-10-28T08:46:54.438Z,1003.4
2017-10-28T08:47:56.876Z,1003.4
2017-10-28T08:48:59.671Z,1003.3
2017-10-28T08:50:02.095Z,1003.3
2017-10-28T08:51:04.537Z,1003.2
2017-10-28T08:52:06.965Z,1003.2
2017-10-28T08:53:09.389Z,1003.2
2017-10-28T08:54:11.813Z,1003.2
2017-10-28T08:55:14.608Z,1003.1
2017-10-28T08:56:17.193Z,1003.1
2017-10-28T08:57:19.621Z,1003
2017-10-28T08:58:22.160Z,1003
2017-10-28T08:59:24.586Z,1003
2017-10-28T09:00:27.036Z,1002.9
2017-10-28T09:01:29.475Z,1002.9
2017-10-28T09:02:31.906Z,1002.9
2017-10-28T09:03:34.547Z,1002.8
2017-10-28T09:04:37.337Z,1002.8
2017-10-28T09:05:39.952Z,1002.8
2017-10-28T09:06:42.373Z,1002.8
2017-10-28T09:07:44.894Z,1002.7
2017-10-28T09:08:47.320Z,1002.7
2017-10-28T09:09:49.751Z,1002.6
2017-10-28T09:10:52.330Z,1002.8
2017-10-28T09:11:54.760Z,1002.6
2017-10-28T09:12:57.574Z,1002.7
2017-10-28T09:14:00.371Z,1002.7
2017-10-28T09:15:03.013Z,1002.7
2017-10-28T09:16:05.448Z,1002.6
2017-10-28T09:17:07.884Z,1002.5
2017-10-28T09:18:10.308Z,1002.5
2017-10-28T09:19:12.737Z,1002.6
2017-10-28T09:20:15.167Z,1002.7
2017-10-28T09:21:17.589Z,1002.6
2017-10-28T09:22:20.018Z,1002.6
2017-10-28T09:23:22.441Z,1002.6
2017-10-28T09:24:24.863Z,1002.6
2017-10-28T09:25:27.311Z,1002.6
2017-10-28T09:26:29.742Z,1002.6
2017-10-28T09:27:32.172Z,1002.4
2017-10-28T09:28:34.600Z,1002.4
2017-10-28T09:29:37.033Z,1002.5
2017-10-28T09:30:39.472Z,1002.3
2017-10-28T09:31:41.903Z,1002.4
2017-10-28T09:32:44.327Z,1002.3
2017-10-28T09:34:19.245Z,1002.4
2017-10-28T09:35:21.667Z,1002.1
2017-10-28T09:36:24.098Z,1002.2
2017-10-28T09:37:26.523Z,1002.3
2017-10-28T09:38:28.958Z,1002.1
2017-10-28T09:39:31.376Z,1002.3
2017-10-28T09:40:33.812Z,1002.2
2017-10-28T09:41:36.238Z,1002.3
2017-10-28T09:42:38.663Z,1002.3
2017-10-28T09:43:41.091Z,1002.3
2017-10-28T09:44:43.525Z,1002.1
2017-10-28T09:45:45.957Z,1002.2
2017-10-28T09:46:48.742Z,1002.1
2017-10-28T09:47:51.170Z,1002.1
2017-10-28T09:48:53.594Z,1002.1
2017-10-28T09:49:56.034Z,1002.1
2017-10-28T09:50:58.461Z,1002.1
2017-10-28T09:52:00.890Z,1002.1
2017-10-28T09:53:03.321Z,1002.2
2017-10-28T09:54:05.744Z,1002.1
2017-10-28T09:55:08.169Z,1002
2017-10-28T09:56:10.601Z,1002.1
2017-10-28T09:57:13.382Z,1002.3
2017-10-28T09:58:15.817Z,1002
2017-10-28T09:59:18.241Z,1002
2017-10-28T10:00:20.676Z,1002
2017-10-28T10:01:23.111Z,1001.9
2017-10-28T10:02:25.545Z,1002
2017-10-28T10:03:27.982Z,1002
2017-10-28T10:04:30.394Z,1001.9
2017-10-28T10:05:32.825Z,1001.9
2017-10-28T10:06:35.271Z,1001.8
2017-10-28T10:07:37.696Z,1001.8
2017-10-28T10:08:40.483Z,1001.8
2017-10-28T10:09:43.263Z,1001.6
2017-10-28T10:10:45.686Z,1001.7
2017-10-28T10:11:48.125Z,1001.6
2017-10-28T10:12:50.556Z,1001.6
2017-10-28T10:13:52.971Z,1001.7
2017-10-28T10:14:55.757Z,1001.6
2017-10-28T10:15:58.187Z,1001.6
2017-10-28T10:17:00.615Z,1001.5
2017-10-28T10:18:03.051Z,1001.5
2017-10-28T10:19:05.474Z,1001.5
2017-10-28T10:20:07.904Z,1001.5
2017-10-28T10:21:10.338Z,1001.4
2017-10-28T10:22:12.771Z,1001.5
2017-10-28T10:23:15.562Z,1001.5
2017-10-28T10:24:17.996Z,1001.3
2017-10-28T10:25:20.413Z,1001.3
2017-10-28T10:26:22.848Z,1001.3
2017-10-28T10:27:25.275Z,1001.3
2017-10-28T10:28:27.706Z,1001.2
2017-10-28T10:29:30.133Z,1001
2017-10-28T10:30:32.567Z,1001.2
2017-10-28T10:31:35.005Z,1001.2
2017-10-28T10:32:37.437Z,1001.2
2017-10-28T10:33:39.869Z,1001.3
2017-10-28T10:34:42.293Z,1001.1
2017-10-28T10:35:44.719Z,1001.4
2017-10-28T10:36:47.143Z,1001.4
2017-10-28T10:37:49.587Z,1001.3
2017-10-28T10:38:52.364Z,1001.2
2017-10-28T10:39:54.791Z,1001.2
2017-10-28T10:40:57.228Z,1001.2
2017-10-28T10:42:00.011Z,1001.1
2017-10-28T10:43:02.453Z,1001.2
2017-10-28T10:44:04.881Z,1001.1
2017-10-28T10:45:07.304Z,1001.1
2017-10-28T10:46:09.747Z,1001.1
2017-10-28T10:47:12.171Z,1001.1
2017-10-28T10:48:14.959Z,1001.2
2017-10-28T10:49:17.394Z,1001.2
2017-10-28T10:50:19.818Z,1000.9
2017-10-28T10:51:22.243Z,1001
2017-10-28T10:52:24.675Z,1000.9
2017-10-28T10:53:27.101Z,1000.8
2017-10-28T10:54:29.531Z,1000.8
2017-10-28T10:55:31.967Z,1000.8
2017-10-28T10:56:34.385Z,1000.7
2017-10-28T10:57:37.173Z,1000.7
2017-10-28T10:58:39.614Z,1000.6
2017-10-28T10:59:42.043Z,1000.8
2017-10-28T11:00:44.478Z,1000.8
2017-10-28T11:01:46.913Z,1000.6
2017-10-28T11:02:49.335Z,1000.5
2017-10-28T11:03:51.761Z,1000.6
2017-10-28T11:04:54.184Z,1000.6
2017-10-28T11:05:56.620Z,1000.5
2017-10-28T11:06:59.750Z,1000.6
2017-10-28T11:08:02.188Z,1000.6
2017-10-28T11:09:04.611Z,1000.5
2017-10-28T11:10:07.048Z,1000.5
2017-10-28T11:11:09.830Z,1000.5
2017-10-28T11:12:12.273Z,1000.6
2017-10-28T11:13:14.693Z,1000.5
2017-10-28T11:14:17.123Z,1000.6
2017-10-28T11:15:19.552Z,1000.6
2017-10-28T11:16:21.980Z,1000.5
2017-10-28T11:17:24.406Z,1000.5
2017-10-28T11:18:26.829Z,1000.6
2017-10-28T11:19:29.257Z,1000.5
2017-10-28T11:20:31.691Z,1000.6
2017-10-28T11:21:34.118Z,1000.6
2017-10-28T11:22:36.533Z,1000.5
2017-10-28T11:23:39.333Z,1000.3
2017-10-28T11:24:41.763Z,1000.4
2017-10-28T11:25:44.710Z,1000.4
2017-10-28T11:26:47.194Z,1000.3
2017-10-28T11:27:49.737Z,1000.2
2017-10-28T11:28:52.161Z,1000.2
2017-10-28T11:29:54.606Z,1000.3
2017-10-28T11:30:57.325Z,1000.3
2017-10-28T11:32:00.111Z,1000.3
2017-10-28T11:33:02.849Z,1000.3
2017-10-28T11:34:05.276Z,1000.2
2017-10-28T11:35:07.709Z,1000.3
2017-10-28T11:36:10.130Z,1000.2
2017-10-28T11:37:12.566Z,1000.2
2017-10-28T11:38:15.013Z,1000.2
2017-10-28T11:39:17.519Z,1000.2
2017-10-28T11:40:20.084Z,1000.2
2017-10-28T11:41:22.660Z,1000.3
2017-10-28T11:42:25.146Z,1000.2
2017-10-28T11:43:27.744Z,1000.3
2017-10-28T11:44:30.284Z,1000.2
2017-10-28T11:45:33.376Z,1000.1
2017-10-28T11:46:35.981Z,1000.1
2017-10-28T11:47:38.411Z,1000.3
2017-10-28T11:48:40.832Z,1000.2
2017-10-28T11:49:43.268Z,1000.2
2017-10-28T11:50:45.755Z,1000.2
2017-10-28T11:51:48.204Z,1000.1
2017-10-28T11:52:50.640Z,1000
2017-10-28T11:53:53.252Z,1000.1
2017-10-28T11:54:55.778Z,1000
2017-10-28T11:55:58.253Z,1000
2017-10-28T11:57:00.845Z,1000
2017-10-28T11:58:03.598Z,1000
2017-10-28T11:59:06.390Z,999.9
2017-10-28T12:00:08.818Z,1000
2017-10-28T12:01:11.233Z,999.9
2017-10-28T12:02:14.019Z,1000
2017-10-28T12:03:16.453Z,999.9
2017-10-28T12:04:19.389Z,999.9
2017-10-28T12:05:21.824Z,999.8
2017-10-28T12:06:24.249Z,999.7
2017-10-28T12:07:27.722Z,999.7
2017-10-28T12:08:30.912Z,999.7
2017-10-28T12:09:34.516Z,999.6
2017-10-28T12:10:36.930Z,999.7
2017-10-28T12:11:40.114Z,999.6
2017-10-28T12:12:42.539Z,999.6
2017-10-28T12:13:45.306Z,999.6
2017-10-28T12:14:48.213Z,999.6
2017-10-28T12:15:51.349Z,999.5
2017-10-28T12:16:54.326Z,999.6
2017-10-28T12:17:57.157Z,999.6
2017-10-28T12:19:00.106Z,999.5
2017-10-28T12:20:02.834Z,999.5
2017-10-28T12:21:05.428Z,999.5
2017-10-28T12:22:07.871Z,999.4
2017-10-28T12:23:10.300Z,999.4
2017-10-28T12:24:12.730Z,999.4
2017-10-28T12:26:19.621Z,999.4
2017-10-28T12:27:22.463Z,999.4
2017-10-28T12:28:24.937Z,999.3
2017-10-28T12:29:27.825Z,999.3
2017-10-28T12:30:30.455Z,999.4
2017-10-28T12:31:32.894Z,999.4
2017-10-28T12:32:35.313Z,999.1
2017-10-28T12:33:37.742Z,999.3
2017-10-28T12:34:40.169Z,999.2
2017-10-28T12:35:42.589Z,999.2
2017-10-28T12:36:45.445Z,999.1
2017-10-28T12:37:47.901Z,999.2
2017-10-28T12:38:50.346Z,999
2017-10-28T12:39:52.809Z,999.1
2017-10-28T12:40:55.357Z,999
2017-10-28T12:41:57.842Z,999
2017-10-28T12:43:00.303Z,999
2017-10-28T12:44:02.875Z,998.9
2017-10-28T12:45:05.327Z,999
2017-10-28T12:46:07.873Z,999
2017-10-28T12:47:10.400Z,999
2017-10-28T12:48:12.850Z,999.1
2017-10-28T12:49:15.310Z,999
2017-10-28T12:50:17.743Z,999
2017-10-28T12:51:20.290Z,998.8
2017-10-28T12:52:23.108Z,999
2017-10-28T12:53:25.549Z,998.9
2017-10-28T12:54:27.983Z,998.9
2017-10-28T12:55:30.523Z,998.7
2017-10-28T12:56:32.947Z,998.7
2017-10-28T12:57:36.112Z,998.8
2017-10-28T12:58:38.553Z,998.7
2017-10-28T12:59:41.352Z,998.6
2017-10-28T13:00:43.787Z,998.7
2017-10-28T13:01:46.235Z,998.6
2017-10-28T13:02:49.017Z,998.5
2017-10-28T13:03:51.454Z,998.4
2017-10-28T13:04:53.893Z,998.5
2017-10-28T13:05:56.328Z,998.5
2017-10-28T13:06:58.789Z,998.4
2017-10-28T13:08:01.330Z,998.5